createdAt,value
2022-10-18T00:01:56.895Z,268
2022-10-18T00:04:02.246Z,268
2022-10-18T00:06:07.378Z,262
2022-10-18T00:08:12.493Z,264
2022-10-18T00:10:17.682Z,267
2022-10-18T00:12:22.882Z,270
2022-10-18T00:14:28.140Z,271
2022-10-18T00:16:33.199Z,272
2022-10-18T00:18:38.382Z,268
2022-10-18T00:20:43.598Z,267
2022-10-18T00:22:48.823Z,272
2022-10-18T00:24:53.953Z,268
2022-10-18T00:26:59.362Z,264
2022-10-18T00:29:04.908Z,271
2022-10-18T00:31:10.424Z,268
2022-10-18T00:33:15.550Z,268
2022-10-18T00:35:20.876Z,268
2022-10-18T00:37:25.998Z,270
2022-10-18T00:39:31.337Z,270
2022-10-18T00:41:36.552Z,268
2022-10-18T00:43:41.826Z,267
2022-10-18T00:45:47.201Z,272
2022-10-18T00:47:52.565Z,268
2022-10-18T00:49:57.891Z,270
2022-10-18T00:52:03.068Z,272
2022-10-18T00:54:08.357Z,266
2022-10-18T00:56:13.696Z,266
2022-10-18T00:58:19.084Z,267
2022-10-18T01:00:24.402Z,273
2022-10-18T01:02:30.387Z,266
2022-10-18T01:04:36.622Z,272
2022-10-18T01:06:41.955Z,268
2022-10-18T01:08:47.399Z,270
2022-10-18T01:10:52.824Z,273
2022-10-18T01:12:58.171Z,270
2022-10-18T01:15:03.423Z,272
2022-10-18T01:17:08.522Z,267
2022-10-18T01:19:13.557Z,272
2022-10-18T01:21:18.742Z,266
2022-10-18T01:23:24.126Z,273
2022-10-18T01:25:30.582Z,270
2022-10-18T01:27:36.237Z,268
2022-10-18T01:29:41.703Z,270
2022-10-18T01:31:46.969Z,272
2022-10-18T01:33:52.528Z,268
2022-10-18T01:35:58.003Z,268
2022-10-18T01:38:03.289Z,268
2022-10-18T01:40:08.431Z,268
2022-10-18T01:42:13.645Z,268
2022-10-18T01:44:18.785Z,268
2022-10-18T01:46:24.098Z,268
2022-10-18T01:48:29.527Z,268
2022-10-18T01:50:34.925Z,268
2022-10-18T01:52:40.560Z,268
2022-10-18T01:54:45.951Z,268
2022-10-18T01:56:51.549Z,268
2022-10-18T01:58:56.956Z,268
2022-10-18T02:01:02.456Z,268
2022-10-18T02:03:07.903Z,268
2022-10-18T02:05:13.242Z,268
2022-10-18T02:07:21.370Z,268
2022-10-18T02:09:26.546Z,268
2022-10-18T02:11:31.789Z,268
2022-10-18T02:13:39.865Z,268
2022-10-18T02:15:45.071Z,268
2022-10-18T02:17:50.431Z,269
2022-10-18T02:19:55.893Z,269
2022-10-18T02:22:01.363Z,268
2022-10-18T02:24:06.749Z,268
2022-10-18T02:26:12.178Z,268
2022-10-18T02:28:17.704Z,268
2022-10-18T02:30:23.280Z,266
2022-10-18T02:32:28.842Z,266
2022-10-18T02:34:35.182Z,266
2022-10-18T02:36:40.452Z,266
2022-10-18T02:38:45.920Z,266
2022-10-18T02:40:51.341Z,266
2022-10-18T02:42:56.720Z,266
2022-10-18T02:45:01.988Z,266
2022-10-18T02:47:07.373Z,266
2022-10-18T02:49:12.705Z,266
2022-10-18T02:51:17.860Z,266
2022-10-18T02:53:23.087Z,266
2022-10-18T02:57:35.207Z,262
2022-10-18T02:59:40.473Z,270
2022-10-18T03:01:46.086Z,274
2022-10-18T03:03:51.577Z,272
2022-10-18T03:05:56.976Z,272
2022-10-18T03:08:02.425Z,272
2022-10-18T03:10:07.643Z,266
2022-10-18T03:12:13.020Z,272
2022-10-18T03:14:18.301Z,272
2022-10-18T03:16:23.593Z,265
2022-10-18T03:18:28.880Z,272
2022-10-18T03:20:34.024Z,271
2022-10-18T03:22:39.377Z,272
2022-10-18T03:24:44.616Z,271
2022-10-18T03:26:49.850Z,272
2022-10-18T03:28:55.269Z,267
2022-10-18T03:31:00.774Z,270
2022-10-18T03:33:06.282Z,266
2022-10-18T03:35:11.667Z,265
2022-10-18T03:37:16.904Z,267
2022-10-18T03:39:22.169Z,265
2022-10-18T03:41:27.537Z,277
2022-10-18T03:43:32.741Z,277
2022-10-18T03:45:38.086Z,270
2022-10-18T03:47:43.369Z,267
2022-10-18T03:49:50.873Z,266
2022-10-18T03:52:01.592Z,267
2022-10-18T03:54:07.290Z,267
2022-10-18T03:56:12.663Z,267
2022-10-18T03:58:18.018Z,267
2022-10-18T04:00:23.507Z,267
2022-10-18T04:02:28.999Z,267
2022-10-18T04:04:35.112Z,267
2022-10-18T04:06:40.639Z,267
2022-10-18T04:08:46.008Z,267
2022-10-18T04:10:51.393Z,270
2022-10-18T04:12:56.772Z,270
2022-10-18T04:15:02.048Z,272
2022-10-18T04:17:07.541Z,272
2022-10-18T04:19:12.895Z,267
2022-10-18T04:21:18.540Z,271
2022-10-18T04:23:23.776Z,272
2022-10-18T04:25:29.143Z,271
2022-10-18T04:27:35.997Z,272
2022-10-18T04:29:41.566Z,264
2022-10-18T04:31:47.036Z,268
2022-10-18T04:33:52.447Z,267
2022-10-18T04:35:57.950Z,267
2022-10-18T04:38:03.201Z,268
2022-10-18T04:40:08.500Z,270
2022-10-18T04:42:14.189Z,267
2022-10-18T04:44:20.204Z,267
2022-10-18T04:46:25.876Z,268
2022-10-18T04:48:31.623Z,268
2022-10-18T04:50:37.512Z,268
2022-10-18T04:52:42.960Z,268
2022-10-18T04:54:48.494Z,268
2022-10-18T04:56:54.004Z,267
2022-10-18T04:58:59.503Z,267
2022-10-18T05:01:04.886Z,282
2022-10-18T05:03:10.146Z,282
2022-10-18T05:05:17.123Z,282
2022-10-18T05:07:23.007Z,282
2022-10-18T05:09:28.876Z,267
2022-10-18T05:11:34.261Z,292
2022-10-18T05:13:40.381Z,291
2022-10-18T05:15:46.398Z,267
2022-10-18T05:17:52.392Z,291
2022-10-18T05:19:58.289Z,291
2022-10-18T05:22:04.098Z,271
2022-10-18T05:24:10.160Z,271
2022-10-18T05:26:16.449Z,270
2022-10-18T05:28:52.428Z,270
2022-10-18T05:30:57.885Z,270
2022-10-18T05:33:03.226Z,272
2022-10-18T05:35:08.638Z,272
2022-10-18T05:37:14.218Z,270
2022-10-18T05:39:19.782Z,271
2022-10-18T05:41:28.049Z,271
2022-10-18T05:43:33.449Z,270
2022-10-18T05:45:39.201Z,270
2022-10-18T05:47:47.074Z,270
2022-10-18T05:49:53.197Z,270
2022-10-18T05:51:58.762Z,270
2022-10-18T05:54:04.004Z,270
2022-10-18T05:56:09.396Z,270
2022-10-18T05:58:14.852Z,270
2022-10-18T06:00:36.063Z,270
2022-10-18T06:02:41.622Z,270
2022-10-18T06:04:47.335Z,270
2022-10-18T06:06:53.142Z,270
2022-10-18T06:08:59.248Z,270
2022-10-18T06:11:04.967Z,270
2022-10-18T06:13:10.378Z,270
2022-10-18T06:15:15.833Z,270
2022-10-18T06:17:22.691Z,269
2022-10-18T06:19:29.523Z,270
2022-10-18T06:21:34.813Z,270
2022-10-18T06:23:41.069Z,265
2022-10-18T06:25:46.490Z,270
2022-10-18T06:27:51.755Z,266
2022-10-18T06:29:57.162Z,266
2022-10-18T06:32:02.723Z,286
2022-10-18T06:34:07.980Z,286
2022-10-18T06:36:13.319Z,284
2022-10-18T06:38:18.424Z,284
2022-10-18T06:40:24.434Z,270
2022-10-18T06:42:30.365Z,270
2022-10-18T06:44:36.535Z,270
2022-10-18T06:46:41.890Z,270
2022-10-18T06:48:47.241Z,270
2022-10-18T06:50:52.984Z,270
2022-10-18T06:52:58.463Z,270
2022-10-18T06:55:10.333Z,270
2022-10-18T06:57:15.545Z,270
2022-10-18T06:59:20.972Z,270
2022-10-18T07:01:29.491Z,270
2022-10-18T07:03:35.099Z,270
2022-10-18T07:05:40.662Z,270
2022-10-18T07:07:46.096Z,268
2022-10-18T07:09:51.749Z,268
2022-10-18T07:11:57.226Z,270
2022-10-18T07:14:02.779Z,270
2022-10-18T07:16:09.130Z,267
2022-10-18T07:18:19.899Z,267
2022-10-18T07:20:30.322Z,267
2022-10-18T07:22:35.703Z,267
2022-10-18T07:24:42.700Z,267
2022-10-18T07:26:48.530Z,267
2022-10-18T07:28:54.764Z,267
2022-10-18T07:31:07.717Z,267
2022-10-18T07:33:13.441Z,267
2022-10-18T07:35:19.324Z,267
2022-10-18T07:37:31.689Z,267
2022-10-18T07:39:37.896Z,267
2022-10-18T07:41:43.639Z,267
2022-10-18T07:43:49.691Z,267
2022-10-18T07:45:55.222Z,267
2022-10-18T07:48:00.457Z,267
2022-10-18T07:50:05.888Z,267
2022-10-18T07:52:11.412Z,267
2022-10-18T07:54:17.449Z,267
2022-10-18T07:56:24.551Z,267
2022-10-18T07:58:30.312Z,267
2022-10-18T08:00:36.488Z,267
2022-10-18T08:02:42.674Z,267
2022-10-18T08:04:49.087Z,286
2022-10-18T08:06:55.234Z,280
2022-10-18T08:09:01.477Z,279
2022-10-18T08:11:07.518Z,279
2022-10-18T08:13:13.555Z,279
2022-10-18T08:15:19.292Z,279
2022-10-18T08:17:24.373Z,279
2022-10-18T08:19:29.765Z,279
2022-10-18T08:21:35.146Z,273
2022-10-18T08:23:41.054Z,274
2022-10-18T08:25:46.232Z,274
2022-10-18T08:27:52.081Z,274
2022-10-18T08:29:57.992Z,279
2022-10-18T08:32:03.945Z,279
2022-10-18T08:34:09.822Z,274
2022-10-18T08:36:19.985Z,274
2022-10-18T08:38:25.741Z,276
2022-10-18T08:40:31.653Z,272
2022-10-18T08:42:38.123Z,272
2022-10-18T08:44:43.926Z,272
2022-10-18T08:46:50.478Z,272
2022-10-18T08:48:56.885Z,276
2022-10-18T08:51:03.157Z,276
2022-10-18T08:53:08.833Z,276
2022-10-18T08:55:14.610Z,276
2022-10-18T08:57:20.537Z,273
2022-10-18T08:59:28.056Z,276
2022-10-18T09:01:33.872Z,274
2022-10-18T09:03:39.737Z,277
2022-10-18T09:05:46.270Z,276
2022-10-18T09:07:51.748Z,277
2022-10-18T09:09:58.499Z,278
2022-10-18T09:12:05.121Z,276
2022-10-18T09:14:10.786Z,273
2022-10-18T09:16:16.234Z,273
2022-10-18T09:18:21.987Z,273
2022-10-18T09:20:27.604Z,268
2022-10-18T09:22:34.157Z,272
2022-10-18T09:24:39.859Z,272
2022-10-18T09:26:45.892Z,273
2022-10-18T09:28:51.375Z,272
2022-10-18T09:31:01.340Z,272
2022-10-18T09:33:07.334Z,273
2022-10-18T09:35:12.811Z,274
2022-10-18T09:37:18.249Z,274
2022-10-18T09:39:25.017Z,273
2022-10-18T09:41:30.484Z,272
2022-10-18T09:43:36.061Z,272
2022-10-18T09:45:41.967Z,272
2022-10-18T09:47:47.369Z,272
2022-10-18T09:49:52.688Z,274
2022-10-18T09:51:58.124Z,270
2022-10-18T09:54:04.410Z,272
2022-10-18T09:56:10.143Z,272
2022-10-18T09:58:15.520Z,272
2022-10-18T10:00:21.059Z,272
2022-10-18T10:02:26.688Z,270
2022-10-18T10:04:32.283Z,271
2022-10-18T10:06:37.773Z,267
2022-10-18T10:08:43.410Z,267
2022-10-18T10:10:49.075Z,267
2022-10-18T10:12:56.494Z,267
2022-10-18T10:15:04.849Z,268
2022-10-18T10:17:10.276Z,267
2022-10-18T10:19:15.561Z,267
2022-10-18T10:21:21.082Z,267
2022-10-18T10:23:28.111Z,268
2022-10-18T10:25:33.620Z,268
2022-10-18T10:27:39.142Z,267
2022-10-18T10:29:47.583Z,267
2022-10-18T10:31:53.183Z,267
2022-10-18T10:33:58.604Z,267
2022-10-18T10:36:03.944Z,267
2022-10-18T10:38:09.375Z,267
2022-10-18T10:40:29.252Z,267
2022-10-18T10:42:36.136Z,268
2022-10-18T10:44:43.154Z,268
2022-10-18T10:46:49.091Z,268
2022-10-18T10:49:41.309Z,267
2022-10-18T10:52:08.054Z,268
2022-10-18T10:54:31.718Z,266
2022-10-18T10:56:37.094Z,267
2022-10-18T10:58:43.064Z,268
2022-10-18T11:00:48.995Z,268
2022-10-18T11:03:30.103Z,267
2022-10-18T11:05:36.468Z,268
2022-10-18T11:07:42.894Z,268
2022-10-18T11:09:48.544Z,268
2022-10-18T11:11:54.287Z,267
2022-10-18T11:14:28.221Z,267
2022-10-18T11:16:33.745Z,267
2022-10-18T11:18:39.162Z,268
2022-10-18T11:20:44.874Z,268
2022-10-18T11:22:50.383Z,268
2022-10-18T11:24:56.324Z,268
2022-10-18T11:27:01.922Z,268
2022-10-18T11:29:07.703Z,268
2022-10-18T11:31:13.772Z,268
2022-10-18T11:33:19.481Z,268
2022-10-18T11:35:31.055Z,268
2022-10-18T11:37:42.828Z,267
2022-10-18T11:39:50.248Z,268
2022-10-18T11:41:55.819Z,267
2022-10-18T11:44:06.488Z,267
2022-10-18T11:46:13.953Z,268
2022-10-18T11:48:20.173Z,282
2022-10-18T11:50:26.363Z,283
2022-10-18T11:52:32.824Z,282
2022-10-18T11:56:44.587Z,280
2022-10-18T11:58:50.262Z,279
2022-10-18T12:00:56.893Z,280
2022-10-18T12:03:02.844Z,282
2022-10-18T12:05:38.559Z,282
2022-10-18T12:07:44.640Z,281
2022-10-18T12:09:51.737Z,280
2022-10-18T12:11:58.424Z,279
2022-10-18T12:14:04.911Z,282
2022-10-18T12:16:10.437Z,281
2022-10-18T12:18:16.202Z,281
2022-10-18T12:20:23.386Z,282
2022-10-18T12:22:29.751Z,281
2022-10-18T12:24:36.177Z,281
2022-10-18T12:26:41.773Z,279
2022-10-18T12:28:47.527Z,279
2022-10-18T12:30:53.145Z,278
2022-10-18T12:33:29.080Z,279
2022-10-18T12:35:34.690Z,273
2022-10-18T12:37:39.940Z,277
2022-10-18T12:40:20.366Z,280
2022-10-18T12:42:27.688Z,278
2022-10-18T12:44:33.242Z,276
2022-10-18T12:46:38.808Z,278
2022-10-18T12:48:44.804Z,279
2022-10-18T12:50:50.993Z,277
2022-10-18T12:52:57.229Z,279
2022-10-18T12:55:05.902Z,277
2022-10-18T12:57:11.773Z,276
2022-10-18T12:59:18.046Z,274
2022-10-18T13:01:24.543Z,276
2022-10-18T13:03:30.341Z,273
2022-10-18T13:05:56.727Z,272
2022-10-18T13:08:03.610Z,272
2022-10-18T13:10:09.355Z,272
2022-10-18T13:12:15.634Z,272
2022-10-18T13:14:21.688Z,272
2022-10-18T13:16:27.598Z,273
2022-10-18T13:18:33.621Z,277
2022-10-18T13:20:39.777Z,276
2022-10-18T13:22:46.109Z,276
2022-10-18T13:24:52.090Z,277
2022-10-18T13:27:37.149Z,277
2022-10-18T13:29:43.267Z,274
2022-10-18T13:31:49.382Z,276
2022-10-18T13:33:55.507Z,276
2022-10-18T13:36:01.104Z,276
2022-10-18T13:38:07.334Z,274
2022-10-18T13:40:13.497Z,276
2022-10-18T13:42:19.379Z,274
2022-10-18T13:44:25.222Z,277
2022-10-18T13:46:31.350Z,277
2022-10-18T13:48:37.451Z,274
2022-10-18T13:50:43.684Z,277
2022-10-18T13:52:52.707Z,274
2022-10-18T13:54:58.967Z,274
2022-10-18T13:57:04.958Z,274
2022-10-18T13:59:18.058Z,274
2022-10-18T14:01:24.442Z,274
2022-10-18T14:04:00.310Z,274
2022-10-18T14:06:06.326Z,276
2022-10-18T14:08:13.572Z,276
2022-10-18T14:10:20.417Z,273
2022-10-18T14:12:38.791Z,274
2022-10-18T14:14:45.041Z,273
2022-10-18T14:16:51.141Z,273
2022-10-18T14:18:57.505Z,273
2022-10-18T14:21:23.148Z,276
2022-10-18T14:23:35.901Z,276
2022-10-18T14:25:42.103Z,277
2022-10-18T14:27:53.632Z,277
2022-10-18T14:30:00.946Z,279
2022-10-18T14:32:07.113Z,277
2022-10-18T14:34:13.226Z,277
2022-10-18T14:36:19.268Z,273
2022-10-18T14:38:25.544Z,277
2022-10-18T14:40:31.827Z,273
2022-10-18T14:42:38.085Z,274
2022-10-18T14:44:44.301Z,278
2022-10-18T14:46:50.896Z,278
2022-10-18T14:48:57.761Z,278
2022-10-18T14:51:03.913Z,276
2022-10-18T14:53:10.008Z,277
2022-10-18T14:55:16.410Z,277
2022-10-18T14:57:22.549Z,277
2022-10-18T14:59:28.851Z,276
2022-10-18T15:01:35.840Z,276
2022-10-18T15:03:42.229Z,279
2022-10-18T15:05:48.346Z,278
2022-10-18T15:07:54.467Z,277
2022-10-18T15:10:01.174Z,278
2022-10-18T15:12:07.486Z,276
2022-10-18T15:14:13.677Z,273
2022-10-18T15:16:20.051Z,278
2022-10-18T15:18:26.453Z,277
2022-10-18T15:20:33.014Z,276
2022-10-18T15:22:39.042Z,273
2022-10-18T15:24:45.440Z,276
2022-10-18T15:26:51.662Z,274
2022-10-18T15:28:59.511Z,274
2022-10-18T15:31:12.145Z,276
2022-10-18T15:33:18.379Z,274
2022-10-18T15:35:29.115Z,276
2022-10-18T15:37:36.592Z,274
2022-10-18T15:39:42.984Z,274
2022-10-18T15:41:49.039Z,274
2022-10-18T15:43:55.386Z,276
2022-10-18T15:46:08.092Z,276
2022-10-18T15:48:14.170Z,276
2022-10-18T15:50:20.701Z,276
2022-10-18T15:52:26.810Z,274
2022-10-18T15:54:33.041Z,276
2022-10-18T15:56:39.461Z,274
2022-10-18T15:58:45.544Z,274
2022-10-18T16:00:51.703Z,273
2022-10-18T16:02:58.032Z,273
2022-10-18T16:05:04.744Z,274
2022-10-18T16:07:10.992Z,273
2022-10-18T16:09:17.232Z,273
2022-10-18T16:11:23.865Z,273
2022-10-18T16:13:30.067Z,289
2022-10-18T16:15:36.397Z,289
2022-10-18T16:17:42.734Z,290
2022-10-18T16:19:48.980Z,289
2022-10-18T16:21:56.042Z,289
2022-10-18T16:24:07.682Z,289
2022-10-18T16:26:14.831Z,289
2022-10-18T16:28:21.407Z,289
2022-10-18T16:30:29.014Z,289
2022-10-18T16:32:36.171Z,288
2022-10-18T16:34:44.410Z,289
2022-10-18T16:36:52.300Z,288
2022-10-18T16:38:59.763Z,288
2022-10-18T16:41:07.739Z,289
2022-10-18T16:43:14.563Z,288
2022-10-18T16:45:23.029Z,288
2022-10-18T16:47:29.471Z,288
2022-10-18T16:49:39.875Z,288
2022-10-18T16:51:49.030Z,288
2022-10-18T16:53:55.960Z,288
2022-10-18T16:56:04.008Z,288
2022-10-18T16:58:11.142Z,288
2022-10-18T17:00:18.051Z,288
2022-10-18T17:02:26.325Z,288
2022-10-18T17:04:33.483Z,286
2022-10-18T17:06:42.165Z,288
2022-10-18T17:08:51.243Z,288
2022-10-18T17:11:02.555Z,286
2022-10-18T17:13:10.673Z,268
2022-10-18T17:15:18.673Z,270
2022-10-18T17:17:27.166Z,266
2022-10-18T17:19:36.811Z,272
2022-10-18T17:21:45.149Z,268
2022-10-18T17:23:52.874Z,268
2022-10-18T17:26:30.586Z,269
2022-10-18T17:28:42.226Z,269
2022-10-18T17:30:51.333Z,270
2022-10-18T17:33:01.844Z,272
2022-10-18T17:35:12.802Z,273
2022-10-18T17:37:27.143Z,273
2022-10-18T17:39:37.128Z,270
2022-10-18T17:41:46.303Z,268
2022-10-18T17:43:57.768Z,268
2022-10-18T17:46:08.189Z,274
2022-10-18T17:48:18.246Z,270
2022-10-18T17:50:26.357Z,276
2022-10-18T17:52:38.097Z,276
2022-10-18T17:54:47.609Z,276
2022-10-18T17:56:59.108Z,273
2022-10-18T17:59:10.815Z,271
2022-10-18T18:01:21.090Z,271
2022-10-18T18:03:40.236Z,274
2022-10-18T18:05:50.805Z,274
2022-10-18T18:08:10.821Z,274
2022-10-18T18:10:20.676Z,274
2022-10-18T18:12:38.039Z,274
2022-10-18T18:14:49.470Z,274
2022-10-18T18:17:02.031Z,274
2022-10-18T18:19:14.730Z,274
2022-10-18T18:21:26.246Z,270
2022-10-18T18:23:38.252Z,272
2022-10-18T18:25:49.311Z,271
2022-10-18T18:28:02.574Z,274
2022-10-18T18:30:19.089Z,274
2022-10-18T18:32:28.943Z,274
2022-10-18T18:34:40.875Z,274
2022-10-18T18:36:52.397Z,273
2022-10-18T18:39:03.114Z,273
2022-10-18T18:41:13.220Z,273
2022-10-18T18:43:29.116Z,273
2022-10-18T18:45:41.079Z,273
2022-10-18T18:47:54.262Z,273
2022-10-18T18:50:06.269Z,274
2022-10-18T18:52:19.034Z,276
2022-10-18T18:54:28.797Z,286
2022-10-18T18:56:38.806Z,288
2022-10-18T18:58:53.029Z,286
2022-10-18T19:01:02.714Z,283
2022-10-18T19:03:14.172Z,283
2022-10-18T19:05:24.467Z,284
2022-10-18T19:07:45.964Z,284
2022-10-18T19:10:11.975Z,283
2022-10-18T19:12:28.071Z,284
2022-10-18T19:14:37.248Z,283
2022-10-18T19:16:48.676Z,284
2022-10-18T19:18:59.816Z,288
2022-10-18T19:21:14.629Z,283
2022-10-18T19:23:27.199Z,283
2022-10-18T19:25:42.328Z,286
2022-10-18T19:27:57.664Z,284
2022-10-18T19:30:18.226Z,282
2022-10-18T19:32:29.576Z,284
2022-10-18T19:34:43.471Z,283
2022-10-18T19:36:53.864Z,280
2022-10-18T19:39:09.691Z,282
2022-10-18T19:41:19.007Z,282
2022-10-18T19:43:36.963Z,279
2022-10-18T19:45:50.242Z,280
2022-10-18T19:47:58.040Z,281
2022-10-18T19:50:21.791Z,280
2022-10-18T19:52:35.618Z,280
2022-10-18T19:54:44.928Z,280
2022-10-18T19:56:55.016Z,280
2022-10-18T19:59:08.204Z,280
2022-10-18T20:01:18.410Z,280
2022-10-18T20:03:26.240Z,278
2022-10-18T20:05:34.673Z,280
2022-10-18T20:07:49.540Z,280
2022-10-18T20:09:56.584Z,280
2022-10-18T20:12:03.394Z,280
2022-10-18T20:14:10.021Z,281
2022-10-18T20:16:23.125Z,281
2022-10-18T20:18:34.383Z,282
2022-10-18T20:20:45.876Z,281
2022-10-18T20:22:58.869Z,281
2022-10-18T20:25:05.534Z,281
2022-10-18T20:27:13.062Z,280
2022-10-18T20:29:21.191Z,277
2022-10-18T20:31:29.249Z,280
2022-10-18T20:33:35.956Z,280
2022-10-18T20:35:42.717Z,278
2022-10-18T20:37:54.252Z,278
2022-10-18T20:40:00.784Z,278
2022-10-18T20:42:07.544Z,279
2022-10-18T20:44:14.344Z,279
2022-10-18T20:46:20.648Z,281
2022-10-18T20:48:27.491Z,280
2022-10-18T20:50:33.949Z,271
2022-10-18T20:52:40.212Z,273
2022-10-18T20:54:46.023Z,273
2022-10-18T20:56:52.000Z,273
2022-10-18T20:58:58.769Z,272
2022-10-18T21:01:04.601Z,274
2022-10-18T21:05:21.117Z,280
2022-10-18T21:07:28.519Z,280
2022-10-18T21:09:35.648Z,282
2022-10-18T21:11:41.992Z,282
2022-10-18T21:13:47.407Z,281
2022-10-18T21:15:53.352Z,281
2022-10-18T21:17:58.887Z,281
2022-10-18T21:20:04.206Z,281
2022-10-18T21:22:09.564Z,281
2022-10-18T21:24:15.013Z,281
2022-10-18T21:26:20.568Z,281
2022-10-18T21:28:26.358Z,281
2022-10-18T21:30:31.904Z,281
2022-10-18T21:32:49.626Z,279
2022-10-18T21:35:02.504Z,279
2022-10-18T21:37:09.859Z,280
2022-10-18T21:39:18.159Z,279
2022-10-18T21:41:25.847Z,279
2022-10-18T21:43:33.180Z,278
2022-10-18T21:45:42.766Z,278
2022-10-18T21:47:50.872Z,278
2022-10-18T21:49:58.405Z,264
2022-10-18T21:52:08.313Z,288
2022-10-18T21:54:16.279Z,284
2022-10-18T21:56:24.438Z,283
2022-10-18T21:58:35.677Z,286
2022-10-18T22:00:43.076Z,283
2022-10-18T22:02:51.378Z,283
2022-10-18T22:05:00.197Z,281
2022-10-18T22:07:13.741Z,282
2022-10-18T22:09:24.441Z,283
2022-10-18T22:11:34.528Z,282
2022-10-18T22:13:42.628Z,282
2022-10-18T22:15:49.437Z,283
2022-10-18T22:17:58.587Z,282
2022-10-18T22:20:06.177Z,282
2022-10-18T22:22:12.962Z,282
2022-10-18T22:24:19.833Z,282
2022-10-18T22:26:30.790Z,273
2022-10-18T22:28:38.306Z,274
2022-10-18T22:30:45.733Z,276
2022-10-18T22:32:53.077Z,276
2022-10-18T22:35:00.072Z,273
2022-10-18T22:37:07.137Z,273
2022-10-18T22:39:16.690Z,273
2022-10-18T22:41:24.536Z,273
2022-10-18T22:43:31.892Z,272
2022-10-18T22:45:39.652Z,271
2022-10-18T22:47:47.135Z,265
2022-10-18T22:49:54.432Z,266
2022-10-18T22:52:01.135Z,270
2022-10-18T22:54:07.753Z,268
2022-10-18T22:56:15.506Z,267
2022-10-18T22:58:23.894Z,264
2022-10-18T23:00:31.702Z,268
2022-10-18T23:02:39.223Z,270
2022-10-18T23:04:47.367Z,266
2022-10-18T23:06:56.042Z,267
2022-10-18T23:09:03.813Z,272
2022-10-18T23:11:11.509Z,272
2022-10-18T23:13:18.279Z,266
2022-10-18T23:15:25.442Z,279
2022-10-18T23:17:34.328Z,277
2022-10-18T23:19:42.675Z,276
2022-10-18T23:21:51.456Z,276
2022-10-18T23:23:58.712Z,274
2022-10-18T23:26:06.689Z,274
2022-10-18T23:28:13.590Z,273
2022-10-18T23:30:22.162Z,274
2022-10-18T23:32:31.052Z,274
2022-10-18T23:34:39.453Z,274
2022-10-18T23:36:48.900Z,274
2022-10-18T23:38:57.428Z,274
2022-10-18T23:41:05.916Z,273
2022-10-18T23:43:14.586Z,276
2022-10-18T23:45:22.094Z,276
2022-10-18T23:47:30.321Z,276
2022-10-18T23:49:39.874Z,276
2022-10-18T23:51:49.487Z,276
2022-10-18T23:53:57.039Z,276
2022-10-18T23:56:05.947Z,270
2022-10-18T23:58:12.680Z,276
